createdAt,value
2022-08-26T00:00:13.156Z,17.88
2022-08-26T00:00:45.355Z,17.88
2022-08-26T00:01:17.386Z,17.88
2022-08-26T00:01:49.480Z,17.88
2022-08-26T00:02:21.268Z,17.88
2022-08-26T00:02:44.038Z,17.88
2022-08-26T00:03:08.378Z,17.77
2022-08-26T00:03:41.102Z,17.77
2022-08-26T00:04:13.404Z,17.77
2022-08-26T00:04:45.087Z,17.77
2022-08-26T00:05:17.467Z,17.77
2022-08-26T00:05:49.032Z,17.77
2022-08-26T00:06:21.093Z,17.72
2022-08-26T00:06:46.073Z,17.72
2022-08-26T00:07:06.163Z,17.72
2022-08-26T00:07:41.127Z,17.72
2022-08-26T00:08:13.010Z,17.72
2022-08-26T00:08:45.012Z,17.72
2022-08-26T00:09:17.105Z,17.72
2022-08-26T00:09:50.881Z,17.72
2022-08-26T00:10:21.669Z,17.61
2022-08-26T00:10:44.254Z,17.61
2022-08-26T00:11:06.666Z,17.61
2022-08-26T00:11:41.147Z,17.61
2022-08-26T00:12:13.615Z,17.61
2022-08-26T00:12:45.403Z,17.61
2022-08-26T00:13:17.005Z,17.61
2022-08-26T00:13:49.519Z,17.61
2022-08-26T00:14:25.049Z,17.61
2022-08-26T00:14:43.897Z,17.61
2022-08-26T00:15:06.465Z,17.61
2022-08-26T00:15:41.497Z,17.61
2022-08-26T00:16:13.066Z,17.61
2022-08-26T00:16:47.110Z,17.61
2022-08-26T00:17:17.259Z,17.50
2022-08-26T00:17:49.490Z,17.50
2022-08-26T00:18:22.771Z,17.50
2022-08-26T00:18:45.251Z,17.50
2022-08-26T00:19:07.618Z,17.50
2022-08-26T00:19:40.889Z,17.50
2022-08-26T00:20:13.856Z,17.50
2022-08-26T00:20:45.415Z,17.50
2022-08-26T00:21:17.169Z,17.50
2022-08-26T00:21:49.636Z,17.50
2022-08-26T00:22:21.686Z,17.50
2022-08-26T00:22:44.227Z,17.50
2022-08-26T00:23:08.961Z,17.50
2022-08-26T00:23:41.966Z,17.50
2022-08-26T00:24:12.901Z,17.50
2022-08-26T00:24:47.868Z,17.50
2022-08-26T00:25:17.130Z,17.50
2022-08-26T00:25:50.244Z,17.50
2022-08-26T00:26:21.079Z,17.50
2022-08-26T00:26:43.782Z,17.50
2022-08-26T00:27:06.493Z,17.50
2022-08-26T00:27:41.050Z,17.50
2022-08-26T00:28:13.075Z,17.50
2022-08-26T00:28:45.137Z,17.38
2022-08-26T00:29:17.259Z,17.38
2022-08-26T00:29:49.228Z,17.38
2022-08-26T00:30:22.956Z,17.38
2022-08-26T00:30:43.674Z,17.38
2022-08-26T00:31:06.075Z,17.38
2022-08-26T00:31:41.275Z,17.38
2022-08-26T00:32:12.865Z,17.38
2022-08-26T00:32:46.347Z,17.38
2022-08-26T00:33:16.983Z,17.38
2022-08-26T00:33:49.337Z,17.27
2022-08-26T00:34:22.780Z,17.27
2022-08-26T00:34:44.010Z,17.27
2022-08-26T00:35:07.246Z,17.27
2022-08-26T00:35:41.066Z,17.27
2022-08-26T00:36:20.381Z,17.27
2022-08-26T00:36:45.410Z,17.27
2022-08-26T00:37:17.591Z,17.27
2022-08-26T00:37:48.965Z,17.27
2022-08-26T00:38:21.089Z,17.27
2022-08-26T00:38:43.804Z,17.27
2022-08-26T00:39:06.289Z,17.27
2022-08-26T00:39:41.824Z,17.27
2022-08-26T00:40:13.123Z,17.27
2022-08-26T00:40:45.379Z,17.27
2022-08-26T00:41:17.105Z,17.27
2022-08-26T00:41:49.022Z,17.27
2022-08-26T00:42:21.077Z,17.27
2022-08-26T00:42:45.955Z,17.27
2022-08-26T00:43:09.419Z,17.27
2022-08-26T00:43:47.271Z,17.27
2022-08-26T00:44:13.346Z,17.27
2022-08-26T00:44:46.314Z,17.27
2022-08-26T00:45:17.693Z,17.27
2022-08-26T00:45:49.214Z,17.27
2022-08-26T00:46:20.978Z,17.27
2022-08-26T00:46:46.587Z,17.27
2022-08-26T00:47:06.831Z,17.27
2022-08-26T00:47:42.672Z,17.27
2022-08-26T00:48:13.111Z,17.27
2022-08-26T00:48:45.551Z,17.27
2022-08-26T00:49:17.211Z,17.27
2022-08-26T00:49:52.788Z,17.27
2022-08-26T00:50:26.648Z,17.27
2022-08-26T00:50:44.304Z,17.38
2022-08-26T00:51:06.274Z,17.38
2022-08-26T00:51:46.857Z,17.38
2022-08-26T00:52:13.296Z,17.38
2022-08-26T00:52:45.424Z,17.38
2022-08-26T00:53:17.639Z,17.38
2022-08-26T00:53:49.038Z,17.38
2022-08-26T00:54:20.987Z,17.38
2022-08-26T00:54:43.811Z,17.38
2022-08-26T00:55:06.030Z,17.38
2022-08-26T00:55:41.556Z,17.38
2022-08-26T00:56:13.311Z,17.38
2022-08-26T00:56:47.122Z,17.38
2022-08-26T00:57:17.001Z,17.38
2022-08-26T00:57:49.116Z,17.38
2022-08-26T00:58:22.535Z,17.38
2022-08-26T00:58:45.298Z,17.38
2022-08-26T00:59:08.079Z,17.38
2022-08-26T00:59:41.894Z,17.38
2022-08-26T01:00:13.241Z,17.38
2022-08-26T01:00:45.399Z,17.38
2022-08-26T01:01:17.373Z,17.38
2022-08-26T01:01:53.070Z,17.38
2022-08-26T01:02:22.272Z,17.38
2022-08-26T01:02:46.782Z,17.38
2022-08-26T01:03:11.572Z,17.38
2022-08-26T01:03:41.967Z,17.38
2022-08-26T01:04:13.075Z,17.38
2022-08-26T01:04:44.947Z,17.38
2022-08-26T01:05:17.015Z,17.38
2022-08-26T01:05:49.412Z,17.38
2022-08-26T01:06:20.847Z,17.38
2022-08-26T01:06:44.407Z,17.38
2022-08-26T01:07:06.234Z,17.38
2022-08-26T01:07:41.423Z,17.38
2022-08-26T01:08:13.772Z,17.38
2022-08-26T01:08:44.971Z,17.50
2022-08-26T01:09:17.047Z,17.50
2022-08-26T01:09:48.979Z,17.50
2022-08-26T01:10:20.959Z,17.50
2022-08-26T01:10:43.651Z,17.50
2022-08-26T01:11:05.970Z,17.50
2022-08-26T01:11:41.684Z,17.50
2022-08-26T01:12:13.570Z,17.50
2022-08-26T01:12:45.567Z,17.50
2022-08-26T01:13:16.979Z,17.50
2022-08-26T01:13:49.068Z,17.50
2022-08-26T01:14:20.979Z,17.50
2022-08-26T01:14:43.571Z,17.38
2022-08-26T01:15:06.958Z,17.38
2022-08-26T01:15:41.068Z,17.38
2022-08-26T01:16:13.210Z,17.38
2022-08-26T01:16:46.528Z,17.38
2022-08-26T01:17:18.014Z,17.38
2022-08-26T01:17:49.262Z,17.38
2022-08-26T01:18:21.867Z,17.38
2022-08-26T01:18:44.609Z,17.38
2022-08-26T01:19:07.023Z,17.27
2022-08-26T01:19:41.018Z,17.27
2022-08-26T01:20:12.963Z,17.27
2022-08-26T01:20:45.138Z,17.27
2022-08-26T01:21:21.351Z,17.27
2022-08-26T01:21:49.476Z,17.27
2022-08-26T01:22:21.112Z,17.27
2022-08-26T01:22:43.759Z,17.27
2022-08-26T01:25:18.954Z,17.27
2022-08-26T01:25:52.332Z,17.27
2022-08-26T01:26:25.103Z,17.27
2022-08-26T01:26:47.730Z,17.22
2022-08-26T01:27:24.903Z,17.22
2022-08-26T01:27:49.228Z,17.22
2022-08-26T01:28:09.924Z,17.22
2022-08-26T01:28:45.351Z,17.22
2022-08-26T01:29:16.944Z,17.22
2022-08-26T01:29:48.955Z,17.22
2022-08-26T01:30:22.562Z,17.22
2022-08-26T01:30:45.040Z,17.22
2022-08-26T01:31:07.265Z,17.22
2022-08-26T01:31:41.550Z,17.22
2022-08-26T01:32:12.844Z,17.22
2022-08-26T01:32:44.958Z,17.22
2022-08-26T01:33:16.797Z,17.22
2022-08-26T01:33:49.142Z,17.22
2022-08-26T01:34:20.854Z,17.22
2022-08-26T01:34:43.526Z,17.22
2022-08-26T01:35:06.300Z,17.22
2022-08-26T01:35:42.110Z,17.22
2022-08-26T01:36:13.753Z,17.11
2022-08-26T01:36:50.617Z,17.11
2022-08-26T01:37:17.215Z,17.11
2022-08-26T01:37:48.929Z,17.11
2022-08-26T01:38:21.198Z,17.11
2022-08-26T01:38:44.076Z,17.11
2022-08-26T01:39:07.405Z,17.11
2022-08-26T01:39:40.892Z,17.00
2022-08-26T01:40:13.147Z,17.00
2022-08-26T01:40:45.250Z,17.00
2022-08-26T01:41:19.888Z,17.00
2022-08-26T01:41:53.589Z,17.00
2022-08-26T01:42:20.953Z,17.11
2022-08-26T01:42:43.619Z,17.11
2022-08-26T01:43:07.401Z,17.11
2022-08-26T01:43:41.204Z,17.11
2022-08-26T01:44:13.107Z,17.11
2022-08-26T01:44:45.212Z,17.11
2022-08-26T01:45:17.699Z,17.11
2022-08-26T01:45:49.441Z,17.00
2022-08-26T01:46:22.122Z,17.00
2022-08-26T01:46:44.447Z,17.00
2022-08-26T01:47:07.376Z,17.00
2022-08-26T01:47:41.491Z,17.00
2022-08-26T01:48:13.290Z,17.00
2022-08-26T01:48:45.028Z,17.00
2022-08-26T01:49:16.912Z,16.88
2022-08-26T01:49:49.472Z,16.88
2022-08-26T01:50:27.614Z,16.88
2022-08-26T01:50:43.911Z,16.88
2022-08-26T01:51:06.342Z,16.88
2022-08-26T01:51:41.204Z,16.88
2022-08-26T01:52:13.588Z,16.88
2022-08-26T01:52:45.043Z,16.88
2022-08-26T01:53:17.689Z,16.88
2022-08-26T01:53:48.937Z,16.88
2022-08-26T01:54:26.235Z,16.88
2022-08-26T01:54:46.303Z,16.88
2022-08-26T01:55:07.930Z,16.88
2022-08-26T01:55:41.087Z,16.88
2022-08-26T01:56:13.455Z,16.88
2022-08-26T01:56:45.399Z,16.88
2022-08-26T01:57:17.413Z,16.88
2022-08-26T01:57:49.097Z,16.88
2022-08-26T01:58:20.897Z,16.88
2022-08-26T01:58:43.613Z,16.88
2022-08-26T01:59:09.937Z,16.88
2022-08-26T01:59:41.488Z,16.88
2022-08-26T02:00:13.237Z,16.88
2022-08-26T02:00:45.105Z,16.77
2022-08-26T02:01:17.831Z,16.77
2022-08-26T02:01:49.226Z,16.77
2022-08-26T02:02:25.494Z,16.77
2022-08-26T02:02:53.378Z,16.77
2022-08-26T02:03:25.571Z,16.77
2022-08-26T02:03:47.966Z,16.72
2022-08-26T02:04:11.022Z,16.72
2022-08-26T02:04:46.547Z,16.72
2022-08-26T02:05:16.943Z,16.72
2022-08-26T02:05:51.447Z,16.72
2022-08-26T02:06:21.681Z,16.72
2022-08-26T02:06:44.292Z,16.72
2022-08-26T02:07:06.665Z,16.72
2022-08-26T02:07:40.882Z,16.72
2022-08-26T02:08:12.976Z,16.72
2022-08-26T02:08:44.918Z,16.72
2022-08-26T02:09:16.889Z,16.72
2022-08-26T02:09:48.793Z,16.72
2022-08-26T02:10:21.098Z,16.72
2022-08-26T02:10:43.751Z,16.72
2022-08-26T02:11:06.169Z,16.72
2022-08-26T02:11:41.167Z,16.72
2022-08-26T02:12:12.940Z,16.72
2022-08-26T02:12:45.283Z,16.72
2022-08-26T02:13:18.501Z,16.72
2022-08-26T02:13:49.486Z,16.72
2022-08-26T02:14:21.291Z,16.72
2022-08-26T02:14:44.443Z,16.72
2022-08-26T02:15:06.936Z,16.72
2022-08-26T02:15:40.937Z,16.72
2022-08-26T02:16:13.148Z,16.72
2022-08-26T02:16:45.040Z,16.72
2022-08-26T02:17:17.301Z,16.72
2022-08-26T02:17:48.914Z,16.77
2022-08-26T02:18:21.158Z,16.77
2022-08-26T02:18:43.820Z,16.77
2022-08-26T02:19:06.218Z,16.77
2022-08-26T02:19:41.103Z,16.88
2022-08-26T02:20:14.959Z,16.88
2022-08-26T02:20:46.525Z,16.88
2022-08-26T02:21:16.771Z,16.88
2022-08-26T02:21:51.267Z,16.88
2022-08-26T02:22:21.000Z,16.88
2022-08-26T02:22:45.144Z,16.88
2022-08-26T02:23:12.271Z,16.88
2022-08-26T02:23:35.233Z,16.88
2022-08-26T02:23:57.368Z,17.00
2022-08-26T02:24:29.621Z,17.00
2022-08-26T02:24:52.572Z,17.00
2022-08-26T02:25:14.834Z,17.00
2022-08-26T02:25:48.930Z,17.00
2022-08-26T02:26:20.924Z,17.00
2022-08-26T02:26:43.559Z,17.11
2022-08-26T02:27:06.377Z,17.11
2022-08-26T02:27:41.336Z,17.11
2022-08-26T02:28:13.054Z,17.11
2022-08-26T02:28:44.830Z,17.22
2022-08-26T02:29:16.927Z,17.22
2022-08-26T02:29:49.172Z,17.22
2022-08-26T02:30:23.373Z,17.22
2022-08-26T02:30:46.011Z,17.22
2022-08-26T02:31:09.286Z,17.22
2022-08-26T02:31:40.899Z,17.22
2022-08-26T02:32:18.486Z,17.22
2022-08-26T02:32:51.007Z,17.11
2022-08-26T02:33:13.594Z,17.11
2022-08-26T02:33:48.996Z,17.11
2022-08-26T02:34:20.775Z,17.22
2022-08-26T02:34:43.442Z,17.22
2022-08-26T02:35:05.887Z,17.22
2022-08-26T02:35:42.376Z,17.22
2022-08-26T02:36:29.550Z,17.22
2022-08-26T02:36:52.180Z,17.22
2022-08-26T02:37:15.029Z,17.22
2022-08-26T02:37:49.516Z,17.22
2022-08-26T02:38:20.757Z,17.22
2022-08-26T02:38:43.591Z,17.22
2022-08-26T02:39:06.041Z,17.22
2022-08-26T02:39:40.944Z,17.22
2022-08-26T02:40:13.364Z,17.22
2022-08-26T02:40:44.968Z,17.27
2022-08-26T02:41:18.361Z,17.27
2022-08-26T02:41:50.053Z,17.22
2022-08-26T02:42:20.878Z,17.22
2022-08-26T02:42:43.579Z,17.22
2022-08-26T02:43:08.627Z,17.22
2022-08-26T02:43:41.255Z,17.22
2022-08-26T02:44:13.346Z,17.22
2022-08-26T02:44:45.038Z,17.22
2022-08-26T02:45:23.151Z,17.22
2022-08-26T02:45:49.864Z,17.22
2022-08-26T02:46:23.100Z,17.22
2022-08-26T02:46:47.123Z,17.22
2022-08-26T02:47:05.821Z,17.22
2022-08-26T02:47:41.424Z,17.22
2022-08-26T02:48:13.143Z,17.22
2022-08-26T02:48:45.565Z,17.22
2022-08-26T02:49:17.678Z,17.22
2022-08-26T02:49:48.818Z,17.22
2022-08-26T02:50:21.290Z,17.22
2022-08-26T02:50:45.461Z,17.22
2022-08-26T02:51:06.353Z,17.22
2022-08-26T02:51:47.245Z,17.22
2022-08-26T02:52:13.278Z,17.22
2022-08-26T02:52:45.185Z,17.22
2022-08-26T02:53:17.061Z,17.22
2022-08-26T02:53:56.858Z,17.22
2022-08-26T02:54:20.058Z,17.22
2022-08-26T02:54:54.222Z,17.22
2022-08-26T02:55:24.892Z,17.22
2022-08-26T02:55:47.532Z,17.22
2022-08-26T02:56:09.915Z,17.22
2022-08-26T02:56:44.830Z,17.22
2022-08-26T02:57:17.518Z,17.22
2022-08-26T02:57:48.914Z,17.22
2022-08-26T02:58:21.003Z,17.22
2022-08-26T02:58:44.028Z,17.22
2022-08-26T02:59:07.026Z,17.22
2022-08-26T02:59:41.020Z,17.22
2022-08-26T03:00:12.937Z,17.22
2022-08-26T03:00:53.172Z,17.27
2022-08-26T03:01:16.808Z,17.27
2022-08-26T03:01:48.996Z,17.27
2022-08-26T03:02:21.247Z,17.27
2022-08-26T03:02:43.883Z,17.27
2022-08-26T03:03:07.699Z,17.27
2022-08-26T03:03:41.159Z,17.38
2022-08-26T03:04:15.271Z,17.38
2022-08-26T03:04:57.673Z,17.38
2022-08-26T03:05:17.531Z,17.38
2022-08-26T03:05:48.919Z,17.38
2022-08-26T03:06:21.074Z,17.50
2022-08-26T03:06:52.646Z,17.50
2022-08-26T03:07:06.119Z,17.50
2022-08-26T03:07:41.294Z,17.50
2022-08-26T03:08:12.775Z,17.50
2022-08-26T03:08:47.091Z,17.50
2022-08-26T03:09:18.642Z,17.50
2022-08-26T03:09:49.271Z,17.61
2022-08-26T03:10:20.787Z,17.61
2022-08-26T03:10:43.401Z,17.61
2022-08-26T03:11:05.846Z,17.61
2022-08-26T03:11:40.910Z,17.61
2022-08-26T03:12:13.668Z,17.61
2022-08-26T03:12:44.779Z,17.61
2022-08-26T03:13:17.383Z,17.61
2022-08-26T03:13:49.742Z,17.61
2022-08-26T03:14:20.818Z,17.72
2022-08-26T03:14:43.410Z,17.72
2022-08-26T03:15:17.670Z,17.72
2022-08-26T03:15:41.874Z,17.72
2022-08-26T03:16:12.989Z,17.72
2022-08-26T03:16:48.490Z,17.72
2022-08-26T03:17:17.747Z,17.72
2022-08-26T03:17:49.061Z,17.72
2022-08-26T03:18:20.995Z,17.72
2022-08-26T03:18:43.616Z,17.77
2022-08-26T03:19:06.448Z,17.77
2022-08-26T03:19:40.911Z,17.77
2022-08-26T03:20:13.673Z,17.77
2022-08-26T03:20:44.796Z,17.77
2022-08-26T03:21:17.587Z,17.77
2022-08-26T03:21:49.109Z,17.77
2022-08-26T03:22:21.091Z,17.72
2022-08-26T03:22:43.676Z,17.72
2022-08-26T03:23:08.216Z,17.72
2022-08-26T03:23:40.944Z,17.72
2022-08-26T03:24:14.524Z,17.72
2022-08-26T03:24:46.127Z,17.72
2022-08-26T03:25:17.374Z,17.61
2022-08-26T03:25:49.486Z,17.61
2022-08-26T03:26:20.846Z,17.61
2022-08-26T03:26:52.105Z,17.61
2022-08-26T03:27:07.284Z,17.61
2022-08-26T03:27:41.634Z,17.61
2022-08-26T03:28:13.552Z,17.61
2022-08-26T03:28:45.306Z,17.61
2022-08-26T03:29:16.979Z,17.61
2022-08-26T03:29:49.557Z,17.61
2022-08-26T03:30:22.402Z,17.61
2022-08-26T03:30:45.013Z,17.61
2022-08-26T03:31:06.100Z,17.61
2022-08-26T03:31:40.910Z,17.50
2022-08-26T03:32:13.839Z,17.50
2022-08-26T03:32:44.902Z,17.50
2022-08-26T03:33:16.834Z,17.50
2022-08-26T03:33:48.770Z,17.50
2022-08-26T03:34:17.916Z,17.50
2022-08-26T03:34:49.522Z,17.50
2022-08-26T03:35:24.895Z,17.50
2022-08-26T03:35:47.636Z,17.50
2022-08-26T03:36:10.815Z,17.50
2022-08-26T03:36:45.844Z,17.38
2022-08-26T03:37:17.876Z,17.38
2022-08-26T03:37:48.743Z,17.38
2022-08-26T03:38:20.779Z,17.38
2022-08-26T03:38:43.539Z,17.38
2022-08-26T03:39:05.863Z,17.27
2022-08-26T03:39:41.351Z,17.27
2022-08-26T03:40:12.774Z,17.27
2022-08-26T03:40:45.243Z,17.27
2022-08-26T03:41:16.931Z,17.27
2022-08-26T03:41:48.786Z,17.27
2022-08-26T03:42:21.534Z,17.27
2022-08-26T03:42:45.274Z,17.27
2022-08-26T03:43:06.027Z,17.27
2022-08-26T03:43:40.810Z,17.27
2022-08-26T03:44:12.749Z,17.22
2022-08-26T03:44:44.651Z,17.22
2022-08-26T03:45:16.866Z,17.22
2022-08-26T03:45:48.778Z,17.22
2022-08-26T03:46:21.174Z,17.22
2022-08-26T03:46:43.987Z,17.22
2022-08-26T03:47:09.471Z,17.11
2022-08-26T03:47:41.070Z,17.11
2022-08-26T03:48:12.743Z,17.11
2022-08-26T03:48:44.715Z,17.11
2022-08-26T03:49:17.442Z,17.11
2022-08-26T03:49:49.026Z,17.11
2022-08-26T03:50:24.387Z,17.11
2022-08-26T03:50:44.506Z,17.11
2022-08-26T03:51:07.286Z,17.00
2022-08-26T03:51:40.921Z,17.00
2022-08-26T03:52:14.567Z,17.00
2022-08-26T03:52:44.805Z,17.00
2022-08-26T03:53:17.400Z,17.00
2022-08-26T03:53:50.480Z,16.88
2022-08-26T03:54:21.669Z,16.88
2022-08-26T03:54:44.474Z,16.88
2022-08-26T03:55:06.710Z,16.88
2022-08-26T03:55:41.026Z,16.88
2022-08-26T03:56:12.779Z,16.77
2022-08-26T03:56:46.617Z,16.77
2022-08-26T03:57:16.843Z,16.77
2022-08-26T03:57:48.864Z,16.77
2022-08-26T03:58:22.666Z,16.77
2022-08-26T03:58:44.829Z,16.77
2022-08-26T03:59:09.075Z,16.77
2022-08-26T03:59:41.330Z,16.77
2022-08-26T04:00:13.327Z,16.77
2022-08-26T04:00:44.913Z,16.77
2022-08-26T04:01:16.875Z,16.77
2022-08-26T04:01:49.045Z,16.77
2022-08-26T04:02:22.999Z,16.72
2022-08-26T04:02:44.119Z,16.72
2022-08-26T04:03:07.007Z,16.72
2022-08-26T04:03:41.417Z,16.72
2022-08-26T04:04:15.617Z,16.72
2022-08-26T04:04:44.710Z,16.72
2022-08-26T04:05:16.905Z,16.72
2022-08-26T04:05:49.731Z,16.72
2022-08-26T04:06:21.129Z,16.72
2022-08-26T04:06:44.519Z,16.72
2022-08-26T04:07:06.186Z,16.72
2022-08-26T04:07:40.833Z,16.61
2022-08-26T04:08:13.139Z,16.61
2022-08-26T04:08:44.756Z,16.61
2022-08-26T04:09:17.546Z,16.61
2022-08-26T04:09:49.102Z,16.61
2022-08-26T04:10:20.787Z,16.61
2022-08-26T04:10:43.539Z,16.61
2022-08-26T04:11:06.536Z,16.61
2022-08-26T04:11:40.778Z,16.50
2022-08-26T04:12:15.466Z,16.50
2022-08-26T04:12:45.572Z,16.50
2022-08-26T04:13:16.774Z,16.50
2022-08-26T04:13:48.903Z,16.61
2022-08-26T04:14:20.668Z,16.61
2022-08-26T04:14:43.463Z,16.61
2022-08-26T04:15:06.726Z,16.61
2022-08-26T04:15:40.814Z,16.50
2022-08-26T04:16:12.832Z,16.50
2022-08-26T04:16:44.764Z,16.50
2022-08-26T04:17:17.009Z,16.50
2022-08-26T04:17:48.765Z,16.50
2022-08-26T04:18:21.280Z,16.38
2022-08-26T04:18:46.626Z,16.38
2022-08-26T04:19:06.460Z,16.38
2022-08-26T04:19:40.818Z,16.38
2022-08-26T04:20:13.552Z,16.38
2022-08-26T04:20:45.577Z,16.38
2022-08-26T04:21:16.886Z,16.38
2022-08-26T04:21:49.265Z,16.38
2022-08-26T04:22:25.174Z,16.38
2022-08-26T04:22:44.036Z,16.38
2022-08-26T04:23:12.189Z,16.38
2022-08-26T04:23:47.233Z,16.38
2022-08-26T04:24:12.834Z,16.50
2022-08-26T04:24:48.742Z,16.50
2022-08-26T04:25:17.352Z,16.50
2022-08-26T04:25:48.880Z,16.50
2022-08-26T04:26:18.175Z,16.50
2022-08-26T04:26:49.501Z,16.38
2022-08-26T04:27:26.848Z,16.38
2022-08-26T04:27:49.224Z,16.38
2022-08-26T04:28:11.743Z,16.27
2022-08-26T04:28:44.919Z,16.27
2022-08-26T04:29:16.767Z,16.27
2022-08-26T04:29:56.900Z,16.27
2022-08-26T04:30:19.275Z,16.22
2022-08-26T04:30:49.525Z,16.22
2022-08-26T04:31:25.020Z,16.22
2022-08-26T04:31:47.491Z,16.22
2022-08-26T04:32:09.866Z,16.11
2022-08-26T04:32:45.500Z,16.11
2022-08-26T04:33:19.715Z,16.11
2022-08-26T04:33:49.555Z,16.11
2022-08-26T04:34:18.651Z,16.11
2022-08-26T04:34:49.661Z,16.11
2022-08-26T04:35:26.097Z,16.11
2022-08-26T04:35:47.602Z,16.11
2022-08-26T04:36:10.058Z,16.11
2022-08-26T04:36:45.599Z,16.11
2022-08-26T04:37:16.787Z,16.22
2022-08-26T04:37:49.451Z,16.22
2022-08-26T04:38:20.824Z,16.22
2022-08-26T04:38:43.515Z,16.22
2022-08-26T04:39:07.603Z,16.22
2022-08-26T04:39:40.746Z,16.22
2022-08-26T04:40:12.920Z,16.22
2022-08-26T04:40:46.855Z,16.11
2022-08-26T04:41:17.967Z,16.11
2022-08-26T04:41:48.758Z,16.11
2022-08-26T04:42:21.077Z,16.11
2022-08-26T04:42:49.598Z,16.11
2022-08-26T04:43:24.868Z,16.11
2022-08-26T04:43:47.451Z,16.11
2022-08-26T04:44:09.870Z,16.11
2022-08-26T04:44:44.894Z,16.11
2022-08-26T04:45:17.557Z,16.11
2022-08-26T04:45:48.831Z,16.11
2022-08-26T04:46:20.922Z,16.00
2022-08-26T04:46:43.929Z,16.00
2022-08-26T04:47:06.207Z,16.00
2022-08-26T04:47:40.895Z,16.00
2022-08-26T04:48:12.859Z,16.00
2022-08-26T04:48:44.834Z,16.00
2022-08-26T04:49:16.981Z,16.00
2022-08-26T04:49:48.843Z,15.88
2022-08-26T04:50:23.043Z,15.88
2022-08-26T04:50:44.476Z,15.88
2022-08-26T04:51:06.846Z,15.88
2022-08-26T04:51:47.119Z,15.88
2022-08-26T04:52:12.987Z,15.88
2022-08-26T04:52:45.398Z,15.88
2022-08-26T04:53:17.013Z,15.88
2022-08-26T04:53:50.410Z,15.88
2022-08-26T04:54:21.036Z,15.88
2022-08-26T04:54:43.572Z,15.88
2022-08-26T04:55:08.528Z,15.88
2022-08-26T04:55:44.192Z,15.88
2022-08-26T04:56:12.882Z,15.88
2022-08-26T04:56:44.741Z,15.88
2022-08-26T04:57:17.557Z,15.88
2022-08-26T04:57:48.858Z,15.88
2022-08-26T04:58:21.151Z,15.88
2022-08-26T04:58:44.202Z,15.88
2022-08-26T04:59:07.606Z,15.88
2022-08-26T04:59:41.112Z,15.88
2022-08-26T05:00:13.201Z,16.00
2022-08-26T05:00:44.820Z,16.00
2022-08-26T05:01:18.391Z,16.00
2022-08-26T05:01:49.750Z,16.00
2022-08-26T05:02:20.958Z,16.00
2022-08-26T05:02:43.666Z,16.11
2022-08-26T05:03:06.661Z,16.11
2022-08-26T05:03:40.861Z,16.22
2022-08-26T05:04:13.799Z,16.27
2022-08-26T05:04:44.746Z,16.27
2022-08-26T05:05:17.267Z,16.27
2022-08-26T05:05:48.709Z,16.27
2022-08-26T05:06:18.957Z,16.27
2022-08-26T05:06:49.642Z,16.27
2022-08-26T05:07:24.898Z,16.27
2022-08-26T05:07:47.548Z,16.27
2022-08-26T05:08:09.896Z,16.27
2022-08-26T05:08:45.491Z,16.27
2022-08-26T05:09:16.664Z,16.27
2022-08-26T05:09:49.235Z,16.27
2022-08-26T05:10:21.323Z,16.27
2022-08-26T05:10:44.448Z,16.27
2022-08-26T05:11:07.880Z,16.22
2022-08-26T05:11:40.694Z,16.22
2022-08-26T05:12:13.459Z,16.22
2022-08-26T05:12:45.027Z,16.11
2022-08-26T05:13:17.055Z,16.00
2022-08-26T05:13:48.996Z,16.00
2022-08-26T05:14:20.859Z,16.00
2022-08-26T05:14:43.502Z,16.00
2022-08-26T05:15:06.268Z,16.00
2022-08-26T05:15:41.605Z,16.00
2022-08-26T05:16:12.627Z,16.00
2022-08-26T05:16:45.108Z,16.00
2022-08-26T05:17:16.900Z,16.00
2022-08-26T05:17:49.933Z,16.00
2022-08-26T05:18:20.827Z,16.00
2022-08-26T05:18:43.507Z,16.11
2022-08-26T05:19:05.898Z,16.11
2022-08-26T05:19:42.905Z,16.11
2022-08-26T05:20:12.771Z,16.11
2022-08-26T05:20:44.667Z,16.11
2022-08-26T05:21:18.152Z,16.11
2022-08-26T05:21:49.690Z,16.11
2022-08-26T05:22:22.406Z,16.11
2022-08-26T05:22:45.021Z,16.11
2022-08-26T05:23:09.278Z,16.11
2022-08-26T05:23:41.761Z,16.11
2022-08-26T05:24:13.716Z,16.11
2022-08-26T05:24:46.564Z,16.11
2022-08-26T05:25:16.847Z,16.11
2022-08-26T05:25:49.950Z,16.11
2022-08-26T05:26:23.199Z,16.11
2022-08-26T05:26:44.539Z,16.11
2022-08-26T05:27:11.402Z,16.11
2022-08-26T05:27:40.808Z,16.22
2022-08-26T05:28:12.821Z,16.22
2022-08-26T05:28:44.687Z,16.22
2022-08-26T05:29:17.439Z,16.22
2022-08-26T05:29:49.005Z,16.22
2022-08-26T05:30:26.286Z,16.22
2022-08-26T05:30:43.434Z,16.22
2022-08-26T05:31:06.393Z,16.22
2022-08-26T05:31:41.729Z,16.22
2022-08-26T05:32:12.662Z,16.27
2022-08-26T05:32:45.254Z,16.27
2022-08-26T05:33:16.691Z,16.27
2022-08-26T05:33:49.568Z,16.38
2022-08-26T05:34:21.692Z,16.38
2022-08-26T05:34:44.372Z,16.38
2022-08-26T05:35:08.833Z,16.38
2022-08-26T05:35:43.163Z,16.38
2022-08-26T05:36:28.793Z,16.50
2022-08-26T05:36:51.603Z,16.50
2022-08-26T05:37:13.862Z,16.50
2022-08-26T05:37:48.742Z,16.50
2022-08-26T05:38:20.695Z,16.50
2022-08-26T05:38:44.143Z,16.50
2022-08-26T05:39:06.425Z,16.50
2022-08-26T05:39:41.254Z,16.50
2022-08-26T05:40:12.843Z,16.61
2022-08-26T05:40:44.536Z,16.61
2022-08-26T05:41:17.207Z,16.61
2022-08-26T05:41:48.560Z,16.61
2022-08-26T05:42:20.681Z,16.72
2022-08-26T05:42:43.280Z,16.72
2022-08-26T05:43:05.686Z,16.72
2022-08-26T05:43:40.644Z,16.72
2022-08-26T05:44:12.691Z,16.77
2022-08-26T05:44:54.148Z,16.77
2022-08-26T05:45:16.745Z,16.88
2022-08-26T05:45:49.018Z,16.88
2022-08-26T05:46:18.064Z,17.00
2022-08-26T05:46:49.639Z,17.00
2022-08-26T05:47:25.288Z,17.00
2022-08-26T05:47:47.778Z,17.00
2022-08-26T05:48:10.011Z,17.11
2022-08-26T05:48:44.738Z,17.11
2022-08-26T05:49:16.690Z,17.11
2022-08-26T05:49:51.689Z,17.22
2022-08-26T05:50:24.542Z,17.22
2022-08-26T05:50:49.839Z,17.22
2022-08-26T05:51:25.994Z,17.27
2022-08-26T05:51:54.017Z,17.27
2022-08-26T05:52:30.004Z,17.38
2022-08-26T05:52:52.469Z,17.38
2022-08-26T05:53:14.890Z,17.50
2022-08-26T05:53:54.621Z,17.50
2022-08-26T05:54:22.242Z,17.61
2022-08-26T05:54:43.831Z,17.61
2022-08-26T05:55:07.025Z,17.72
2022-08-26T05:55:41.095Z,17.72
2022-08-26T05:56:12.751Z,17.77
2022-08-26T05:56:44.683Z,17.77
2022-08-26T05:57:17.139Z,17.88
2022-08-26T05:57:49.379Z,17.88
2022-08-26T05:58:21.797Z,18.00
2022-08-26T05:58:44.473Z,18.00
2022-08-26T05:59:14.430Z,18.00
2022-08-26T05:59:44.736Z,18.11
2022-08-26T06:00:13.033Z,18.22
2022-08-26T06:00:48.627Z,18.22
2022-08-26T06:01:11.087Z,18.27
2022-08-26T06:01:49.239Z,18.27
2022-08-26T06:02:21.169Z,18.27
2022-08-26T06:02:51.322Z,18.27
2022-08-26T06:03:24.539Z,18.38
2022-08-26T06:03:47.698Z,18.50
2022-08-26T06:04:09.745Z,18.50
2022-08-26T06:04:44.670Z,18.61
2022-08-26T06:05:22.154Z,18.61
2022-08-26T06:05:48.670Z,18.72
2022-08-26T06:06:20.796Z,18.72
2022-08-26T06:06:49.609Z,18.77
2022-08-26T06:07:24.769Z,18.88
2022-08-26T06:07:47.900Z,18.88
2022-08-26T06:08:10.073Z,19.00
2022-08-26T06:08:44.730Z,19.11
2022-08-26T06:09:17.409Z,19.11
2022-08-26T06:09:49.047Z,19.22
2022-08-26T06:10:32.108Z,19.27
2022-08-26T06:10:49.819Z,19.27
2022-08-26T06:11:24.903Z,19.38
2022-08-26T06:11:47.390Z,19.38
2022-08-26T06:12:09.702Z,19.38
2022-08-26T06:12:44.696Z,19.50
2022-08-26T06:13:20.198Z,19.61
2022-08-26T06:13:48.785Z,19.61
2022-08-26T06:14:18.275Z,19.72
2022-08-26T06:14:49.748Z,19.77
2022-08-26T06:15:30.220Z,19.77
2022-08-26T06:15:47.830Z,19.77
2022-08-26T06:16:10.308Z,19.77
2022-08-26T06:16:44.629Z,19.77
2022-08-26T06:17:16.743Z,19.88
2022-08-26T06:17:48.526Z,19.88
2022-08-26T06:18:17.935Z,20.00
2022-08-26T06:18:49.719Z,20.00
2022-08-26T06:19:24.826Z,20.00
2022-08-26T06:19:47.564Z,20.00
2022-08-26T06:20:10.270Z,20.00
2022-08-26T06:20:56.918Z,20.11
2022-08-26T06:21:16.594Z,20.11
2022-08-26T06:21:53.942Z,20.11
2022-08-26T06:22:23.375Z,20.11
2022-08-26T06:22:43.501Z,20.11
2022-08-26T06:23:05.846Z,20.22
2022-08-26T06:23:40.738Z,20.22
2022-08-26T06:24:12.834Z,20.22
2022-08-26T06:24:46.186Z,20.22
2022-08-26T06:25:16.833Z,20.27
2022-08-26T06:25:48.702Z,20.27
2022-08-26T06:26:20.744Z,20.27
2022-08-26T06:26:43.483Z,20.38
2022-08-26T06:27:05.671Z,20.38
2022-08-26T06:27:40.687Z,20.38